sensor_id;sensor_type;location;lat;lon;timestamp;temperature;humidity
24176;DHT22;12324;48.146;11.502;2022-12-18T00:14:41;-4.10;99.90
24176;DHT22;12324;48.146;11.502;2022-12-18T00:17:08;-4.20;99.90
24176;DHT22;12324;48.146;11.502;2022-12-18T00:19:35;-4.30;99.90
24176;DHT22;12324;48.146;11.502;2022-12-18T00:22:02;-4.30;99.90
24176;DHT22;12324;48.146;11.502;2022-12-18T00:24:29;-4.30;99.90
24176;DHT22;12324;48.146;11.502;2022-12-18T00:26:55;-4.40;99.90
24176;DHT22;12324;48.146;11.502;2022-12-18T00:29:22;-4.30;99.90
24176;DHT22;12324;48.146;11.502;2022-12-18T00:31:48;-4.40;99.90
24176;DHT22;12324;48.146;11.502;2022-12-18T00:34:15;-4.40;99.90
24176;DHT22;12324;48.146;11.502;2022-12-18T00:36:42;-4.40;99.90
24176;DHT22;12324;48.146;11.502;2022-12-18T00:39:10;-4.40;99.90
24176;DHT22;12324;48.146;11.502;2022-12-18T00:41:37;-4.40;99.90
24176;DHT22;12324;48.146;11.502;2022-12-18T00:44:36;-4.40;99.90
24176;DHT22;12324;48.146;11.502;2022-12-18T00:47:02;-4.40;99.90
24176;DHT22;12324;48.146;11.502;2022-12-18T00:49:30;-4.40;99.90
24176;DHT22;12324;48.146;11.502;2022-12-18T00:51:56;-4.50;99.90
24176;DHT22;12324;48.146;11.502;2022-12-18T00:54:23;-4.50;99.90
24176;DHT22;12324;48.146;11.502;2022-12-18T00:56:50;-4.50;99.90
24176;DHT22;12324;48.146;11.502;2022-12-18T00:59:17;-4.50;99.90
24176;DHT22;12324;48.146;11.502;2022-12-18T01:01:45;-4.50;99.90
24176;DHT22;12324;48.146;11.502;2022-12-18T01:04:12;-4.60;99.90
24176;DHT22;12324;48.146;11.502;2022-12-18T10:33:28;-3.80;99.90
24176;DHT22;12324;48.146;11.502;2022-12-18T10:35:55;-4.00;99.90
24176;DHT22;12324;48.146;11.502;2022-12-18T10:38:25;-4.00;99.90
24176;DHT22;12324;48.146;11.502;2022-12-18T10:41:01;-4.10;99.90
24176;DHT22;12324;48.146;11.502;2022-12-18T10:43:33;-4.00;99.90
24176;DHT22;12324;48.146;11.502;2022-12-18T10:46:03;-4.00;99.90
24176;DHT22;12324;48.146;11.502;2022-12-18T10:48:34;-3.90;99.90
24176;DHT22;12324;48.146;11.502;2022-12-18T10:51:03;-4.00;99.90
24176;DHT22;12324;48.146;11.502;2022-12-18T10:53:40;-3.90;99.90
24176;DHT22;12324;48.146;11.502;2022-12-18T10:56:08;-3.90;99.90
24176;DHT22;12324;48.146;11.502;2022-12-18T10:58:37;-3.80;99.90
24176;DHT22;12324;48.146;11.502;2022-12-18T11:01:17;-3.80;99.90
24176;DHT22;12324;48.146;11.502;2022-12-18T11:04:00;-3.90;99.90
24176;DHT22;12324;48.146;11.502;2022-12-18T11:06:29;-3.80;99.90
24176;DHT22;12324;48.146;11.502;2022-12-18T11:09:05;-3.80;99.90
24176;DHT22;12324;48.146;11.502;2022-12-18T11:11:40;-3.80;99.90
24176;DHT22;12324;48.146;11.502;2022-12-18T11:14:24;-3.70;99.90
24176;DHT22;12324;48.146;11.502;2022-12-18T11:16:52;-3.70;99.90
24176;DHT22;12324;48.146;11.502;2022-12-18T11:19:40;-3.70;99.90
24176;DHT22;12324;48.146;11.502;2022-12-18T11:24:55;-4.00;99.90
24176;DHT22;12324;48.146;11.502;2022-12-18T11:27:58;-4.10;99.90
24176;DHT22;12324;48.146;11.502;2022-12-18T11:30:31;-3.90;99.90
24176;DHT22;12324;48.146;11.502;2022-12-18T11:33:05;-3.80;99.90
24176;DHT22;12324;48.146;11.502;2022-12-18T11:35:52;-3.80;99.90
24176;DHT22;12324;48.146;11.502;2022-12-18T11:38:34;-3.70;99.90
24176;DHT22;12324;48.146;11.502;2022-12-18T11:50:12;-3.60;99.90
24176;DHT22;12324;48.146;11.502;2022-12-18T11:52:40;-3.60;99.90
24176;DHT22;12324;48.146;11.502;2022-12-18T11:55:36;-3.70;99.90
24176;DHT22;12324;48.146;11.502;2022-12-18T11:58:07;-3.60;99.90
24176;DHT22;12324;48.146;11.502;2022-12-18T12:03:21;-3.60;99.90
24176;DHT22;12324;48.146;11.502;2022-12-18T12:11:25;-3.60;99.90
24176;DHT22;12324;48.146;11.502;2022-12-18T12:14:22;-3.60;99.90
24176;DHT22;12324;48.146;11.502;2022-12-18T12:17:03;-3.50;99.90
24176;DHT22;12324;48.146;11.502;2022-12-18T12:22:32;-3.30;99.90
24176;DHT22;12324;48.146;11.502;2022-12-18T12:25:09;-3.40;99.90
24176;DHT22;12324;48.146;11.502;2022-12-18T12:30:21;-3.50;99.90
24176;DHT22;12324;48.146;11.502;2022-12-18T12:38:25;-3.60;99.90
24176;DHT22;12324;48.146;11.502;2022-12-18T12:41:02;-3.60;99.90
24176;DHT22;12324;48.146;11.502;2022-12-18T12:43:44;-3.60;99.90
24176;DHT22;12324;48.146;11.502;2022-12-18T12:46:18;-3.50;99.90
24176;DHT22;12324;48.146;11.502;2022-12-18T12:48:53;-3.50;99.90
24176;DHT22;12324;48.146;11.502;2022-12-18T12:53:49;-3.50;99.90
24176;DHT22;12324;48.146;11.502;2022-12-18T12:56:19;-3.50;99.90
24176;DHT22;12324;48.146;11.502;2022-12-18T12:59:02;-3.50;99.90
24176;DHT22;12324;48.146;11.502;2022-12-18T13:01:41;-3.60;99.90
24176;DHT22;12324;48.146;11.502;2022-12-18T13:06:43;-3.50;99.90
24176;DHT22;12324;48.146;11.502;2022-12-18T13:09:13;-3.30;99.90
24176;DHT22;12324;48.146;11.502;2022-12-18T13:11:45;-3.20;99.90
24176;DHT22;12324;48.146;11.502;2022-12-18T13:14:31;-3.30;99.90
24176;DHT22;12324;48.146;11.502;2022-12-18T13:20:13;-3.10;99.90
24176;DHT22;12324;48.146;11.502;2022-12-18T13:22:44;-3.00;99.90
24176;DHT22;12324;48.146;11.502;2022-12-18T13:46:01;-3.00;99.90
24176;DHT22;12324;48.146;11.502;2022-12-18T13:48:32;-3.60;99.90
24176;DHT22;12324;48.146;11.502;2022-12-18T13:51:10;-3.50;99.90
24176;DHT22;12324;48.146;11.502;2022-12-18T13:53:42;-3.50;99.90
24176;DHT22;12324;48.146;11.502;2022-12-18T13:56:16;-3.60;99.90
24176;DHT22;12324;48.146;11.502;2022-12-18T13:58:42;-3.80;99.90
24176;DHT22;12324;48.146;11.502;2022-12-18T14:01:23;-3.90;99.90
24176;DHT22;12324;48.146;11.502;2022-12-18T14:03:50;-3.90;99.90
24176;DHT22;12324;48.146;11.502;2022-12-18T14:06:17;-4.00;99.90
24176;DHT22;12324;48.146;11.502;2022-12-18T14:08:43;-4.00;99.90
24176;DHT22;12324;48.146;11.502;2022-12-18T14:11:19;-4.00;99.90
24176;DHT22;12324;48.146;11.502;2022-12-18T14:13:48;-4.00;99.90
24176;DHT22;12324;48.146;11.502;2022-12-18T14:16:16;-4.00;99.90
24176;DHT22;12324;48.146;11.502;2022-12-18T14:18:55;-3.90;99.90
24176;DHT22;12324;48.146;11.502;2022-12-18T14:21:33;-4.00;99.90
24176;DHT22;12324;48.146;11.502;2022-12-18T14:24:11;-4.00;99.90
24176;DHT22;12324;48.146;11.502;2022-12-18T14:26:40;-4.00;99.90
24176;DHT22;12324;48.146;11.502;2022-12-18T14:29:27;-4.00;99.90
24176;DHT22;12324;48.146;11.502;2022-12-18T14:34:49;-3.80;99.90
24176;DHT22;12324;48.146;11.502;2022-12-18T14:37:20;-3.60;99.90
24176;DHT22;12324;48.146;11.502;2022-12-18T14:40:01;-3.80;99.90
24176;DHT22;12324;48.146;11.502;2022-12-18T14:42:36;-3.70;99.90
24176;DHT22;12324;48.146;11.502;2022-12-18T14:45:32;-3.70;99.90
24176;DHT22;12324;48.146;11.502;2022-12-18T14:48:35;-3.90;99.90
24176;DHT22;12324;48.146;11.502;2022-12-18T14:53:43;-4.00;99.90
24176;DHT22;12324;48.146;11.502;2022-12-18T14:56:27;-4.20;99.90
24176;DHT22;12324;48.146;11.502;2022-12-18T14:59:03;-4.30;99.90
24176;DHT22;12324;48.146;11.502;2022-12-18T15:01:37;-4.30;99.90
24176;DHT22;12324;48.146;11.502;2022-12-18T15:04:23;-4.30;99.90
24176;DHT22;12324;48.146;11.502;2022-12-18T15:07:12;-4.30;99.90
24176;DHT22;12324;48.146;11.502;2022-12-18T16:00:36;-4.40;99.90
24176;DHT22;12324;48.146;11.502;2022-12-18T16:03:05;-4.60;99.90
24176;DHT22;12324;48.146;11.502;2022-12-18T16:05:32;-4.60;99.90
24176;DHT22;12324;48.146;11.502;2022-12-18T16:07:59;-4.50;99.90
24176;DHT22;12324;48.146;11.502;2022-12-18T16:10:26;-4.50;99.90
24176;DHT22;12324;48.146;11.502;2022-12-18T16:12:53;-4.50;99.90
24176;DHT22;12324;48.146;11.502;2022-12-18T16:15:20;-4.50;99.90
24176;DHT22;12324;48.146;11.502;2022-12-18T16:17:50;-4.50;99.90
